Terminal Aerodrome Forecast
Issued by NWS

Home | Current Version | Previous Version | Text Only | Print | Product List | Glossary On
Versions: 1 2 3 4 5 6 7 8 9 10 11 12 13
311
FTUS45 KVEF 082320
TAFVGT
TAF
KVGT 082320Z 0900/0924 09007KT P6SM SKC
     FM090400 33007KT P6SM SKC
     FM091800 VRB04KT P6SM SKC=

USA.gov is the U.S. government's official web portal to all federal, state and local government web resources and services.